Navigator Grace — D5DP9 — position and weather

sailwx.info

Track history (hours):
 
Tides and Currents Weather Stations Pressure Air Temp Water Temp Dewpoint Dewpoint Depression Visibility Wind Speed Wind Dir Waves Ship Positions

Navigator Grace

Last reported at 2018-Apr-25 01:34 UTC. Time now 2018-Apr-25 02:30 UTC.
Position N 40°23' W 009°57'.

Length 153 m; draft 6.2 m.

Type: Ship. MMSI: 636015943.

Date/timePositionNaut miles runAvg speedWind from/ knotsBaromVisibWave heightAir tempDewpointWater temp
2018-Apr-25 01:34N 40°23' W 009°57'113.3
2018-Apr-25 01:28N 40°22' W 009°57'1913.1
2018-Apr-25 00:02N 40°03' W 009°57'113.7
2018-Apr-24 23:57N 40°02' W 009°57'613.6
2018-Apr-24 23:30N 39°56' W 009°57'813.8
2018-Apr-24 22:56N 39°48' W 009°57'1013.9
2018-Apr-24 22:13N 39°38' W 009°57'314.2
2018-Apr-24 22:00N 39°35' W 009°57'814.2
2018-Apr-24 21:28N 39°27' W 009°57'714.5
2018-Apr-24 21:00N 39°20' W 009°57'714.5
2018-Apr-24 20:30N 39°13' W 009°57'714.5
2018-Apr-24 20:00N 39°06' W 009°56'714.4
2018-Apr-24 19:30N 38°59' W 009°56'714.4
2018-Apr-24 19:00N 38°52' W 009°56'714.1
2018-Apr-24 18:31N 38°45' W 009°56'713.9
2018-Apr-24 18:00N 38°38' W 009°55'613.0
2018-Apr-24 17:30N 38°35' W 009°47'815.2
2018-Apr-24 17:00N 38°35' W 009°38'815.2
2018-Apr-24 16:30N 38°35' W 009°28'5 9.8
2018-Apr-24 15:59N 38°37' W 009°22'714.4
2018-Apr-24 15:30N 38°41' W 009°14'2 4.5
2018-Apr-24 14:58N 38°41' W 009°11'0 0.0
2018-Apr-24 14:16N 38°41' W 009°11'0 0.0
2018-Apr-24 13:19N 38°41' W 009°11'0 0.0
2018-Apr-24 12:46N 38°41' W 009°11'0 0.0
2018-Apr-24 12:25N 38°41' W 009°11'0 0.0
2018-Apr-24 11:58N 38°41' W 009°11'0 0.0
2018-Apr-24 11:10N 38°41' W 009°11'0 0.1
2018-Apr-24 10:58N 38°41' W 009°11'0 0.1
2018-Apr-24 10:22N 38°41' W 009°11'1 1.8
2018-Apr-24 10:00N 38°41' W 009°12'5 9.2
2018-Apr-24 09:30N 38°40' W 009°18'611.8
2018-Apr-24 09:01N 38°38' W 009°25'1 2.8
2018-Apr-24 08:30N 38°39' W 009°25'1 1.2
2018-Apr-24 08:00N 38°39' W 009°25'1 1.6
2018-Apr-24 07:31N 38°40' W 009°25'0 0.1
2018-Apr-24 07:00N 38°40' W 009°25'0 0.1
2018-Apr-24 06:30N 38°40' W 009°25'0 0.0
2018-Apr-24 06:00N 38°40' W 009°25'0 0.0
2018-Apr-24 05:30N 38°40' W 009°25'0 0.0
2018-Apr-24 05:00N 38°40' W 009°25'0 0.0
2018-Apr-24 04:30N 38°40' W 009°25'0 0.0
2018-Apr-24 04:00N 38°40' W 009°25'0 0.0
2018-Apr-24 03:30N 38°40' W 009°25'0 0.0
2018-Apr-24 03:00N 38°40' W 009°25'0 0.3
2018-Apr-24 02:27N 38°40' W 009°25'0 0.0
2018-Apr-24 01:57N 38°40' W 009°25'0 0.0
2018-Apr-24 01:30N 38°40' W 009°25'0 0.1
2018-Apr-24 00:57N 38°40' W 009°25'0 0.1
2018-Apr-24 00:30N 38°40' W 009°25'0 0.0
2018-Apr-24 00:00N 38°40' W 009°25'0 0.0
2018-Apr-23 23:27N 38°40' W 009°25'0 0.0
2018-Apr-23 23:00N 38°40' W 009°25'0 0.0
2018-Apr-23 22:30N 38°40' W 009°25'0 0.1
2018-Apr-23 21:57N 38°40' W 009°25'0 0.0
2018-Apr-23 21:30N 38°40' W 009°25'0 0.0
2018-Apr-23 21:00N 38°40' W 009°25'0 0.0
2018-Apr-23 20:30N 38°40' W 009°25'0 0.0
2018-Apr-23 20:00N 38°40' W 009°25'0 0.0
2018-Apr-23 19:30N 38°40' W 009°25'0 0.1
2018-Apr-23 19:00N 38°40' W 009°25'0 0.0
2018-Apr-23 18:30N 38°40' W 009°25'0 0.0
2018-Apr-23 18:00N 38°40' W 009°25'0 0.0
2018-Apr-23 17:30N 38°40' W 009°25'0 0.0
2018-Apr-23 17:00N 38°40' W 009°25'0 0.1
2018-Apr-23 16:30N 38°40' W 009°25'0 0.1
2018-Apr-23 16:00N 38°40' W 009°25'0 0.2
2018-Apr-23 15:30N 38°40' W 009°25'0 0.1
2018-Apr-23 15:00N 38°40' W 009°25'0 0.0
2018-Apr-23 14:30N 38°40' W 009°25'0 0.3
2018-Apr-23 14:00N 38°40' W 009°25'0 0.0
2018-Apr-23 13:30N 38°40' W 009°25'0 0.0
2018-Apr-23 13:00N 38°40' W 009°25'0 0.0
2018-Apr-23 12:30N 38°40' W 009°25'0 0.0
2018-Apr-23 11:57N 38°40' W 009°25'0 0.0
2018-Apr-23 11:30N 38°40' W 009°25'0 0.0
2018-Apr-23 11:00N 38°40' W 009°25'0 0.0
2018-Apr-23 10:30N 38°40' W 009°25'0 0.0
2018-Apr-23 10:00N 38°40' W 009°25'0 0.0
2018-Apr-23 09:30N 38°40' W 009°25'0 0.0
2018-Apr-23 09:00N 38°40' W 009°25'0 0.1
2018-Apr-23 08:30N 38°40' W 009°25'0 0.1
2018-Apr-23 08:00N 38°40' W 009°25'0 0.1
2018-Apr-23 07:30N 38°40' W 009°25'0 0.1
2018-Apr-23 07:00N 38°40' W 009°25'0 0.1
2018-Apr-23 06:30N 38°40' W 009°25'0 0.1
2018-Apr-23 06:00N 38°40' W 009°25'0 0.0
2018-Apr-23 05:30N 38°40' W 009°25'0 0.0
2018-Apr-23 04:54N 38°40' W 009°25'0 0.0
2018-Apr-23 04:30N 38°40' W 009°25'0 0.0
2018-Apr-23 04:00N 38°40' W 009°25'0 0.0
2018-Apr-23 03:30N 38°40' W 009°25'0 0.0
2018-Apr-23 03:00N 38°40' W 009°25'0 0.0
2018-Apr-23 02:30N 38°40' W 009°25'0 0.0
2018-Apr-23 02:00N 38°40' W 009°25'0 0.0
2018-Apr-23 01:27N 38°40' W 009°25'0 0.1
2018-Apr-23 01:00N 38°40' W 009°25'0 0.1
2018-Apr-23 00:30N 38°40' W 009°25'0 0.0
2018-Apr-23 00:00N 38°40' W 009°25'0 0.0
2018-Apr-22 23:30N 38°40' W 009°25'0 0.0
2018-Apr-22 22:57N 38°40' W 009°25'0 0.1
2018-Apr-22 22:30N 38°40' W 009°25'1 1.6
2018-Apr-22 22:00N 38°39' W 009°25'5 9.2
2018-Apr-22 21:30N 38°34' W 009°27'612.3
2018-Apr-22 21:00N 38°28' W 009°28'713.1
2018-Apr-22 20:30N 38°22' W 009°29'713.5
2018-Apr-22 20:00N 38°15' W 009°31'713.5
2018-Apr-22 19:31N 38°09' W 009°32'713.8
2018-Apr-22 19:00N 38°02' W 009°34'713.6
2018-Apr-22 18:30N 37°55' W 009°35'713.7
2018-Apr-22 18:01N 37°49' W 009°37'713.6
2018-Apr-22 17:31N 37°42' W 009°39'713.6
2018-Apr-22 17:00N 37°35' W 009°41'  
Track history (hours):
 
Tides and Currents Weather Stations Pressure Air Temp Water Temp Dewpoint Dewpoint Depression Visibility Wind Speed Wind Dir Waves Ship Positions

Navigator Grace

Last reported at 2018-Apr-25 01:34 UTC. Time now 2018-Apr-25 02:30 UTC.
Position N 40°23' W 009°57'.

Length 153 m; draft 6.2 m.

Type: Ship. MMSI: 636015943.

Date/timePositionNaut miles runAvg speedWind from/ knotsBaromVisibWave heightAir tempDewpointWater temp
2018-Apr-25 01:34N 40°23' W 009°57'113.3
2018-Apr-25 01:28N 40°22' W 009°57'1913.1
2018-Apr-25 00:02N 40°03' W 009°57'113.7
2018-Apr-24 23:57N 40°02' W 009°57'613.6
2018-Apr-24 23:30N 39°56' W 009°57'813.8
2018-Apr-24 22:56N 39°48' W 009°57'1013.9
2018-Apr-24 22:13N 39°38' W 009°57'314.2
2018-Apr-24 22:00N 39°35' W 009°57'814.2
2018-Apr-24 21:28N 39°27' W 009°57'714.5
2018-Apr-24 21:00N 39°20' W 009°57'714.5
2018-Apr-24 20:30N 39°13' W 009°57'714.5
2018-Apr-24 20:00N 39°06' W 009°56'714.4
2018-Apr-24 19:30N 38°59' W 009°56'714.4
2018-Apr-24 19:00N 38°52' W 009°56'714.1
2018-Apr-24 18:31N 38°45' W 009°56'713.9
2018-Apr-24 18:00N 38°38' W 009°55'613.0
2018-Apr-24 17:30N 38°35' W 009°47'815.2
2018-Apr-24 17:00N 38°35' W 009°38'815.2
2018-Apr-24 16:30N 38°35' W 009°28'5 9.8
2018-Apr-24 15:59N 38°37' W 009°22'714.4
2018-Apr-24 15:30N 38°41' W 009°14'2 4.5
2018-Apr-24 14:58N 38°41' W 009°11'0 0.0
2018-Apr-24 14:16N 38°41' W 009°11'0 0.0
2018-Apr-24 13:19N 38°41' W 009°11'0 0.0
2018-Apr-24 12:46N 38°41' W 009°11'0 0.0
2018-Apr-24 12:25N 38°41' W 009°11'0 0.0
2018-Apr-24 11:58N 38°41' W 009°11'0 0.0
2018-Apr-24 11:10N 38°41' W 009°11'0 0.1
2018-Apr-24 10:58N 38°41' W 009°11'0 0.1
2018-Apr-24 10:22N 38°41' W 009°11'1 1.8
2018-Apr-24 10:00N 38°41' W 009°12'5 9.2
2018-Apr-24 09:30N 38°40' W 009°18'611.8
2018-Apr-24 09:01N 38°38' W 009°25'1 2.8
2018-Apr-24 08:30N 38°39' W 009°25'1 1.2
2018-Apr-24 08:00N 38°39' W 009°25'1 1.6
2018-Apr-24 07:31N 38°40' W 009°25'0 0.1
2018-Apr-24 07:00N 38°40' W 009°25'0 0.1
2018-Apr-24 06:30N 38°40' W 009°25'0 0.0
2018-Apr-24 06:00N 38°40' W 009°25'0 0.0
2018-Apr-24 05:30N 38°40' W 009°25'0 0.0
2018-Apr-24 05:00N 38°40' W 009°25'0 0.0
2018-Apr-24 04:30N 38°40' W 009°25'0 0.0
2018-Apr-24 04:00N 38°40' W 009°25'0 0.0
2018-Apr-24 03:30N 38°40' W 009°25'0 0.0
2018-Apr-24 03:00N 38°40' W 009°25'0 0.3
2018-Apr-24 02:27N 38°40' W 009°25'0 0.0
2018-Apr-24 01:57N 38°40' W 009°25'0 0.0
2018-Apr-24 01:30N 38°40' W 009°25'0 0.1
2018-Apr-24 00:57N 38°40' W 009°25'0 0.1
2018-Apr-24 00:30N 38°40' W 009°25'0 0.0
2018-Apr-24 00:00N 38°40' W 009°25'0 0.0
2018-Apr-23 23:27N 38°40' W 009°25'0 0.0
2018-Apr-23 23:00N 38°40' W 009°25'0 0.0
2018-Apr-23 22:30N 38°40' W 009°25'0 0.1
2018-Apr-23 21:57N 38°40' W 009°25'0 0.0
2018-Apr-23 21:30N 38°40' W 009°25'0 0.0
2018-Apr-23 21:00N 38°40' W 009°25'0 0.0
2018-Apr-23 20:30N 38°40' W 009°25'0 0.0
2018-Apr-23 20:00N 38°40' W 009°25'0 0.0
2018-Apr-23 19:30N 38°40' W 009°25'0 0.1
2018-Apr-23 19:00N 38°40' W 009°25'0 0.0
2018-Apr-23 18:30N 38°40' W 009°25'0 0.0
2018-Apr-23 18:00N 38°40' W 009°25'0 0.0
2018-Apr-23 17:30N 38°40' W 009°25'0 0.0
2018-Apr-23 17:00N 38°40' W 009°25'0 0.1
2018-Apr-23 16:30N 38°40' W 009°25'0 0.1
2018-Apr-23 16:00N 38°40' W 009°25'0 0.2
2018-Apr-23 15:30N 38°40' W 009°25'0 0.1
2018-Apr-23 15:00N 38°40' W 009°25'0 0.0
2018-Apr-23 14:30N 38°40' W 009°25'0 0.3
2018-Apr-23 14:00N 38°40' W 009°25'0 0.0
2018-Apr-23 13:30N 38°40' W 009°25'0 0.0
2018-Apr-23 13:00N 38°40' W 009°25'0 0.0
2018-Apr-23 12:30N 38°40' W 009°25'0 0.0
2018-Apr-23 11:57N 38°40' W 009°25'0 0.0
2018-Apr-23 11:30N 38°40' W 009°25'0 0.0
2018-Apr-23 11:00N 38°40' W 009°25'0 0.0
2018-Apr-23 10:30N 38°40' W 009°25'0 0.0
2018-Apr-23 10:00N 38°40' W 009°25'0 0.0
2018-Apr-23 09:30N 38°40' W 009°25'0 0.0
2018-Apr-23 09:00N 38°40' W 009°25'0 0.1
2018-Apr-23 08:30N 38°40' W 009°25'0 0.1
2018-Apr-23 08:00N 38°40' W 009°25'0 0.1
2018-Apr-23 07:30N 38°40' W 009°25'0 0.1
2018-Apr-23 07:00N 38°40' W 009°25'0 0.1
2018-Apr-23 06:30N 38°40' W 009°25'0 0.1
2018-Apr-23 06:00N 38°40' W 009°25'0 0.0
2018-Apr-23 05:30N 38°40' W 009°25'0 0.0
2018-Apr-23 04:54N 38°40' W 009°25'0 0.0
2018-Apr-23 04:30N 38°40' W 009°25'0 0.0
2018-Apr-23 04:00N 38°40' W 009°25'0 0.0
2018-Apr-23 03:30N 38°40' W 009°25'0 0.0
2018-Apr-23 03:00N 38°40' W 009°25'0 0.0
2018-Apr-23 02:30N 38°40' W 009°25'0 0.0
2018-Apr-23 02:00N 38°40' W 009°25'0 0.0
2018-Apr-23 01:27N 38°40' W 009°25'0 0.1
2018-Apr-23 01:00N 38°40' W 009°25'0 0.1
2018-Apr-23 00:30N 38°40' W 009°25'0 0.0
2018-Apr-23 00:00N 38°40' W 009°25'0 0.0
2018-Apr-22 23:30N 38°40' W 009°25'0 0.0
2018-Apr-22 22:57N 38°40' W 009°25'0 0.1
2018-Apr-22 22:30N 38°40' W 009°25'1 1.6
2018-Apr-22 22:00N 38°39' W 009°25'5 9.2
2018-Apr-22 21:30N 38°34' W 009°27'612.3
2018-Apr-22 21:00N 38°28' W 009°28'713.1
2018-Apr-22 20:30N 38°22' W 009°29'713.5
2018-Apr-22 20:00N 38°15' W 009°31'713.5
2018-Apr-22 19:31N 38°09' W 009°32'713.8
2018-Apr-22 19:00N 38°02' W 009°34'713.6
2018-Apr-22 18:30N 37°55' W 009°35'713.7
2018-Apr-22 18:01N 37°49' W 009°37'713.6
2018-Apr-22 17:31N 37°42' W 009°39'713.6
2018-Apr-22 17:00N 37°35' W 009°41'  

Dump ship's entire track history